sensor_id;sensor_type;location;lat;lon;timestamp;P1;durP1;ratioP1;P2;durP2;ratioP2
47299;SDS011;33036;51.320;17.234;2022-11-15T00:00:48;142.68;;;61.13;;
47299;SDS011;33036;51.320;17.234;2022-11-15T00:04:49;140.65;;;59.42;;
47299;SDS011;33036;51.320;17.234;2022-11-15T00:08:50;137.88;;;58.53;;
47299;SDS011;33036;51.320;17.234;2022-11-15T00:12:52;138.18;;;59.08;;
47299;SDS011;33036;51.320;17.234;2022-11-15T00:16:53;142.80;;;58.25;;
47299;SDS011;33036;51.320;17.234;2022-11-15T00:20:54;148.82;;;58.40;;
47299;SDS011;33036;51.320;17.234;2022-11-15T00:24:55;143.85;;;58.90;;
47299;SDS011;33036;51.320;17.234;2022-11-15T00:28:56;148.95;;;58.45;;
47299;SDS011;33036;51.320;17.234;2022-11-15T00:33:01;133.50;;;55.67;;
47299;SDS011;33036;51.320;17.234;2022-11-15T00:37:05;137.65;;;57.33;;
47299;SDS011;33036;51.320;17.234;2022-11-15T00:41:07;135.48;;;57.63;;
47299;SDS011;33036;51.320;17.234;2022-11-15T00:45:08;147.00;;;58.80;;
47299;SDS011;33036;51.320;17.234;2022-11-15T00:49:10;147.35;;;58.78;;
47299;SDS011;33036;51.320;17.234;2022-11-15T00:53:11;140.90;;;58.40;;
47299;SDS011;33036;51.320;17.234;2022-11-15T00:57:14;141.60;;;57.47;;
47299;SDS011;33036;51.320;17.234;2022-11-15T01:01:15;143.70;;;57.42;;
47299;SDS011;33036;51.320;17.234;2022-11-15T01:05:19;141.77;;;58.47;;
47299;SDS011;33036;51.320;17.234;2022-11-15T01:09:20;149.25;;;57.25;;
47299;SDS011;33036;51.320;17.234;2022-11-15T01:13:21;148.60;;;57.63;;
47299;SDS011;33036;51.320;17.234;2022-11-15T01:17:22;140.35;;;57.88;;
47299;SDS011;33036;51.320;17.234;2022-11-15T01:21:23;126.35;;;54.22;;
47299;SDS011;33036;51.320;17.234;2022-11-15T01:25:24;152.88;;;56.85;;
47299;SDS011;33036;51.320;17.234;2022-11-15T01:29:25;139.90;;;57.40;;
47299;SDS011;33036;51.320;17.234;2022-11-15T01:33:28;143.38;;;57.42;;
47299;SDS011;33036;51.320;17.234;2022-11-15T01:37:30;148.70;;;55.30;;
47299;SDS011;33036;51.320;17.234;2022-11-15T01:41:32;144.18;;;55.08;;
47299;SDS011;33036;51.320;17.234;2022-11-15T01:45:33;143.98;;;55.03;;
47299;SDS011;33036;51.320;17.234;2022-11-15T01:49:35;145.07;;;56.60;;
47299;SDS011;33036;51.320;17.234;2022-11-15T01:53:38;146.68;;;55.60;;
47299;SDS011;33036;51.320;17.234;2022-11-15T01:57:41;139.80;;;54.58;;
47299;SDS011;33036;51.320;17.234;2022-11-15T02:01:43;141.48;;;55.00;;
47299;SDS011;33036;51.320;17.234;2022-11-15T02:05:44;139.35;;;55.80;;
47299;SDS011;33036;51.320;17.234;2022-11-15T02:09:45;137.60;;;57.05;;
47299;SDS011;33036;51.320;17.234;2022-11-15T02:13:47;143.50;;;55.78;;
47299;SDS011;33036;51.320;17.234;2022-11-15T02:30:47;135.63;;;55.33;;
47299;SDS011;33036;51.320;17.234;2022-11-15T02:35:21;134.55;;;55.70;;
47299;SDS011;33036;51.320;17.234;2022-11-15T02:44:25;135.18;;;54.33;;
47299;SDS011;33036;51.320;17.234;2022-11-15T02:48:33;140.82;;;54.90;;
47299;SDS011;33036;51.320;17.234;2022-11-15T02:52:34;130.35;;;52.17;;
47299;SDS011;33036;51.320;17.234;2022-11-15T02:56:35;138.07;;;54.70;;
47299;SDS011;33036;51.320;17.234;2022-11-15T03:09:40;127.00;;;51.75;;
47299;SDS011;33036;51.320;17.234;2022-11-15T03:18:21;131.30;;;53.33;;
47299;SDS011;33036;51.320;17.234;2022-11-15T03:22:29;131.17;;;51.73;;
47299;SDS011;33036;51.320;17.234;2022-11-15T03:26:31;128.48;;;51.63;;
47299;SDS011;33036;51.320;17.234;2022-11-15T03:30:34;134.75;;;52.38;;
47299;SDS011;33036;51.320;17.234;2022-11-15T03:34:39;132.05;;;51.00;;
47299;SDS011;33036;51.320;17.234;2022-11-15T03:38:43;133.35;;;52.03;;
47299;SDS011;33036;51.320;17.234;2022-11-15T03:47:09;131.18;;;50.40;;
47299;SDS011;33036;51.320;17.234;2022-11-15T03:51:31;129.57;;;52.00;;
47299;SDS011;33036;51.320;17.234;2022-11-15T03:55:32;129.60;;;49.78;;
47299;SDS011;33036;51.320;17.234;2022-11-15T03:59:34;132.70;;;52.50;;
47299;SDS011;33036;51.320;17.234;2022-11-15T04:03:34;126.68;;;51.65;;
47299;SDS011;33036;51.320;17.234;2022-11-15T04:07:35;153.15;;;56.50;;
47299;SDS011;33036;51.320;17.234;2022-11-15T04:11:36;144.75;;;55.42;;
47299;SDS011;33036;51.320;17.234;2022-11-15T04:15:38;133.00;;;52.45;;
47299;SDS011;33036;51.320;17.234;2022-11-15T04:19:41;119.80;;;48.45;;
47299;SDS011;33036;51.320;17.234;2022-11-15T04:24:01;127.65;;;50.20;;
47299;SDS011;33036;51.320;17.234;2022-11-15T04:28:14;131.13;;;49.45;;
47299;SDS011;33036;51.320;17.234;2022-11-15T04:32:15;123.70;;;48.80;;
47299;SDS011;33036;51.320;17.234;2022-11-15T04:36:16;120.18;;;47.47;;
47299;SDS011;33036;51.320;17.234;2022-11-15T04:40:36;120.95;;;47.95;;
47299;SDS011;33036;51.320;17.234;2022-11-15T04:44:37;127.53;;;49.13;;
47299;SDS011;33036;51.320;17.234;2022-11-15T04:48:38;126.97;;;49.47;;
47299;SDS011;33036;51.320;17.234;2022-11-15T04:52:42;116.78;;;45.65;;
47299;SDS011;33036;51.320;17.234;2022-11-15T04:56:49;113.35;;;46.30;;
47299;SDS011;33036;51.320;17.234;2022-11-15T05:00:50;115.25;;;47.35;;
47299;SDS011;33036;51.320;17.234;2022-11-15T05:04:51;114.25;;;47.25;;
47299;SDS011;33036;51.320;17.234;2022-11-15T05:08:52;124.78;;;49.05;;
47299;SDS011;33036;51.320;17.234;2022-11-15T05:12:53;112.82;;;45.55;;
47299;SDS011;33036;51.320;17.234;2022-11-15T05:16:54;120.53;;;46.60;;
47299;SDS011;33036;51.320;17.234;2022-11-15T05:20:55;121.32;;;47.78;;
47299;SDS011;33036;51.320;17.234;2022-11-15T05:24:56;116.05;;;45.50;;
47299;SDS011;33036;51.320;17.234;2022-11-15T05:28:58;110.30;;;45.92;;
47299;SDS011;33036;51.320;17.234;2022-11-15T05:32:59;113.45;;;48.13;;
47299;SDS011;33036;51.320;17.234;2022-11-15T05:37:00;113.32;;;45.35;;
47299;SDS011;33036;51.320;17.234;2022-11-15T05:41:01;98.90;;;44.58;;
47299;SDS011;33036;51.320;17.234;2022-11-15T05:45:04;110.38;;;46.05;;
47299;SDS011;33036;51.320;17.234;2022-11-15T05:49:07;106.93;;;46.25;;
47299;SDS011;33036;51.320;17.234;2022-11-15T05:53:11;112.95;;;46.85;;
47299;SDS011;33036;51.320;17.234;2022-11-15T05:57:13;115.57;;;47.90;;
47299;SDS011;33036;51.320;17.234;2022-11-15T06:01:15;108.50;;;46.95;;
47299;SDS011;33036;51.320;17.234;2022-11-15T06:05:15;128.23;;;50.92;;
47299;SDS011;33036;51.320;17.234;2022-11-15T06:09:16;131.13;;;55.42;;
47299;SDS011;33036;51.320;17.234;2022-11-15T06:13:17;147.32;;;65.78;;
47299;SDS011;33036;51.320;17.234;2022-11-15T06:17:19;125.15;;;54.17;;
47299;SDS011;33036;51.320;17.234;2022-11-15T06:21:20;108.10;;;49.55;;
47299;SDS011;33036;51.320;17.234;2022-11-15T06:25:21;109.30;;;46.63;;
47299;SDS011;33036;51.320;17.234;2022-11-15T06:29:22;106.25;;;46.65;;
47299;SDS011;33036;51.320;17.234;2022-11-15T06:33:23;115.13;;;47.15;;
47299;SDS011;33036;51.320;17.234;2022-11-15T06:37:24;108.07;;;47.65;;
47299;SDS011;33036;51.320;17.234;2022-11-15T06:41:25;125.60;;;51.40;;
47299;SDS011;33036;51.320;17.234;2022-11-15T06:45:25;118.22;;;50.35;;
47299;SDS011;33036;51.320;17.234;2022-11-15T06:49:27;122.70;;;47.72;;
47299;SDS011;33036;51.320;17.234;2022-11-15T06:53:28;142.50;;;56.13;;
47299;SDS011;33036;51.320;17.234;2022-11-15T06:57:30;126.93;;;53.30;;
47299;SDS011;33036;51.320;17.234;2022-11-15T07:01:32;118.15;;;50.42;;
47299;SDS011;33036;51.320;17.234;2022-11-15T07:05:33;113.07;;;50.83;;
47299;SDS011;33036;51.320;17.234;2022-11-15T07:09:34;122.53;;;52.20;;
47299;SDS011;33036;51.320;17.234;2022-11-15T07:13:35;128.02;;;52.95;;
47299;SDS011;33036;51.320;17.234;2022-11-15T07:17:37;126.85;;;53.40;;
47299;SDS011;33036;51.320;17.234;2022-11-15T07:21:38;116.97;;;51.00;;
47299;SDS011;33036;51.320;17.234;2022-11-15T07:25:39;121.18;;;50.25;;
47299;SDS011;33036;51.320;17.234;2022-11-15T07:29:40;134.15;;;54.30;;
47299;SDS011;33036;51.320;17.234;2022-11-15T07:33:41;131.02;;;54.13;;
47299;SDS011;33036;51.320;17.234;2022-11-15T07:37:42;131.93;;;53.67;;
47299;SDS011;33036;51.320;17.234;2022-11-15T07:41:43;130.23;;;54.92;;
47299;SDS011;33036;51.320;17.234;2022-11-15T07:45:45;129.27;;;52.85;;
47299;SDS011;33036;51.320;17.234;2022-11-15T07:49:46;119.47;;;51.08;;
47299;SDS011;33036;51.320;17.234;2022-11-15T07:53:47;126.22;;;52.75;;
47299;SDS011;33036;51.320;17.234;2022-11-15T07:57:48;129.00;;;52.72;;
47299;SDS011;33036;51.320;17.234;2022-11-15T08:01:49;116.78;;;50.35;;
47299;SDS011;33036;51.320;17.234;2022-11-15T08:05:50;113.78;;;51.92;;
47299;SDS011;33036;51.320;17.234;2022-11-15T08:09:52;116.43;;;50.10;;
47299;SDS011;33036;51.320;17.234;2022-11-15T08:13:54;111.38;;;49.38;;
47299;SDS011;33036;51.320;17.234;2022-11-15T08:17:56;110.78;;;49.50;;
47299;SDS011;33036;51.320;17.234;2022-11-15T08:21:58;107.65;;;49.58;;
47299;SDS011;33036;51.320;17.234;2022-11-15T08:26:00;109.80;;;49.92;;
47299;SDS011;33036;51.320;17.234;2022-11-15T08:30:04;114.47;;;51.80;;
47299;SDS011;33036;51.320;17.234;2022-11-15T08:34:06;104.95;;;48.38;;
47299;SDS011;33036;51.320;17.234;2022-11-15T08:38:07;111.15;;;49.25;;
47299;SDS011;33036;51.320;17.234;2022-11-15T08:42:08;110.07;;;49.40;;
47299;SDS011;33036;51.320;17.234;2022-11-15T08:46:13;97.72;;;47.40;;
47299;SDS011;33036;51.320;17.234;2022-11-15T08:50:14;106.80;;;49.47;;
47299;SDS011;33036;51.320;17.234;2022-11-15T08:54:15;105.13;;;46.72;;
47299;SDS011;33036;51.320;17.234;2022-11-15T08:58:17;103.80;;;47.58;;
47299;SDS011;33036;51.320;17.234;2022-11-15T09:02:17;102.18;;;47.42;;
47299;SDS011;33036;51.320;17.234;2022-11-15T09:06:19;99.75;;;47.25;;
47299;SDS011;33036;51.320;17.234;2022-11-15T09:10:20;108.97;;;47.20;;
47299;SDS011;33036;51.320;17.234;2022-11-15T09:14:21;101.00;;;47.17;;
47299;SDS011;33036;51.320;17.234;2022-11-15T09:18:22;98.45;;;44.95;;
47299;SDS011;33036;51.320;17.234;2022-11-15T09:22:23;87.72;;;40.65;;
47299;SDS011;33036;51.320;17.234;2022-11-15T09:26:24;81.10;;;38.40;;
47299;SDS011;33036;51.320;17.234;2022-11-15T09:30:25;77.72;;;36.72;;
47299;SDS011;33036;51.320;17.234;2022-11-15T09:34:26;72.82;;;35.70;;
47299;SDS011;33036;51.320;17.234;2022-11-15T09:38:27;78.30;;;37.70;;
47299;SDS011;33036;51.320;17.234;2022-11-15T09:50:55;59.92;;;31.38;;
47299;SDS011;33036;51.320;17.234;2022-11-15T09:55:02;77.10;;;31.75;;
47299;SDS011;33036;51.320;17.234;2022-11-15T10:03:36;53.17;;;27.95;;
47299;SDS011;33036;51.320;17.234;2022-11-15T10:12:34;52.35;;;28.67;;
47299;SDS011;33036;51.320;17.234;2022-11-15T10:20:59;51.90;;;26.60;;
47299;SDS011;33036;51.320;17.234;2022-11-15T10:29:03;46.05;;;26.15;;
47299;SDS011;33036;51.320;17.234;2022-11-15T10:37:30;41.67;;;24.05;;
47299;SDS011;33036;51.320;17.234;2022-11-15T10:41:32;42.35;;;24.15;;
47299;SDS011;33036;51.320;17.234;2022-11-15T10:45:37;49.03;;;24.98;;
47299;SDS011;33036;51.320;17.234;2022-11-15T10:49:38;50.47;;;24.05;;
47299;SDS011;33036;51.320;17.234;2022-11-15T10:53:54;43.10;;;23.73;;
47299;SDS011;33036;51.320;17.234;2022-11-15T10:58:05;45.35;;;25.17;;
47299;SDS011;33036;51.320;17.234;2022-11-15T11:06:47;47.30;;;24.48;;
47299;SDS011;33036;51.320;17.234;2022-11-15T11:10:53;43.45;;;22.67;;
47299;SDS011;33036;51.320;17.234;2022-11-15T11:14:56;46.10;;;24.05;;
47299;SDS011;33036;51.320;17.234;2022-11-15T11:31:58;47.28;;;25.60;;
47299;SDS011;33036;51.320;17.234;2022-11-15T11:53:47;56.40;;;29.98;;
47299;SDS011;33036;51.320;17.234;2022-11-15T12:02:28;181.02;;;76.78;;
47299;SDS011;33036;51.320;17.234;2022-11-15T12:10:52;52.60;;;30.60;;
47299;SDS011;33036;51.320;17.234;2022-11-15T12:19:26;67.80;;;32.08;;
47299;SDS011;33036;51.320;17.234;2022-11-15T12:23:31;66.90;;;34.63;;
47299;SDS011;33036;51.320;17.234;2022-11-15T12:31:48;171.48;;;69.00;;
47299;SDS011;33036;51.320;17.234;2022-11-15T12:35:59;93.25;;;46.40;;
47299;SDS011;33036;51.320;17.234;2022-11-15T12:40:21;93.47;;;45.42;;
47299;SDS011;33036;51.320;17.234;2022-11-15T12:52:39;54.40;;;30.00;;
47299;SDS011;33036;51.320;17.234;2022-11-15T13:13:42;78.22;;;35.47;;
47299;SDS011;33036;51.320;17.234;2022-11-15T13:21:49;91.53;;;41.33;;
47299;SDS011;33036;51.320;17.234;2022-11-15T13:26:15;174.70;;;66.68;;
47299;SDS011;33036;51.320;17.234;2022-11-15T13:30:22;125.97;;;52.88;;
47299;SDS011;33036;51.320;17.234;2022-11-15T13:34:31;185.82;;;75.35;;
47299;SDS011;33036;51.320;17.234;2022-11-15T13:38:35;92.07;;;43.38;;
47299;SDS011;33036;51.320;17.234;2022-11-15T13:42:37;64.03;;;33.78;;
47299;SDS011;33036;51.320;17.234;2022-11-15T13:46:38;62.00;;;33.80;;
47299;SDS011;33036;51.320;17.234;2022-11-15T13:50:39;87.70;;;41.70;;
47299;SDS011;33036;51.320;17.234;2022-11-15T13:54:42;137.07;;;54.53;;
47299;SDS011;33036;51.320;17.234;2022-11-15T13:58:44;173.65;;;65.07;;
47299;SDS011;33036;51.320;17.234;2022-11-15T14:02:45;148.13;;;59.40;;
47299;SDS011;33036;51.320;17.234;2022-11-15T14:06:47;227.25;;;88.70;;
47299;SDS011;33036;51.320;17.234;2022-11-15T14:11:12;225.93;;;86.72;;
47299;SDS011;33036;51.320;17.234;2022-11-15T14:19:35;138.95;;;57.83;;
47299;SDS011;33036;51.320;17.234;2022-11-15T14:23:37;90.65;;;42.20;;
47299;SDS011;33036;51.320;17.234;2022-11-15T14:27:38;79.07;;;39.17;;
47299;SDS011;33036;51.320;17.234;2022-11-15T14:31:40;71.32;;;38.67;;
47299;SDS011;33036;51.320;17.234;2022-11-15T14:35:41;89.82;;;42.25;;
47299;SDS011;33036;51.320;17.234;2022-11-15T14:39:42;85.88;;;42.67;;
47299;SDS011;33036;51.320;17.234;2022-11-15T14:43:43;75.78;;;37.78;;
47299;SDS011;33036;51.320;17.234;2022-11-15T14:47:44;54.17;;;29.15;;
47299;SDS011;33036;51.320;17.234;2022-11-15T14:51:45;61.50;;;32.75;;
47299;SDS011;33036;51.320;17.234;2022-11-15T14:55:46;63.13;;;35.47;;
47299;SDS011;33036;51.320;17.234;2022-11-15T14:59:47;69.45;;;33.92;;
47299;SDS011;33036;51.320;17.234;2022-11-15T15:03:48;70.30;;;36.53;;
47299;SDS011;33036;51.320;17.234;2022-11-15T15:07:52;69.53;;;35.28;;
47299;SDS011;33036;51.320;17.234;2022-11-15T15:11:53;63.40;;;33.17;;
47299;SDS011;33036;51.320;17.234;2022-11-15T15:15:55;65.63;;;34.13;;
47299;SDS011;33036;51.320;17.234;2022-11-15T15:19:56;78.40;;;38.67;;
47299;SDS011;33036;51.320;17.234;2022-11-15T15:23:57;78.25;;;37.67;;
47299;SDS011;33036;51.320;17.234;2022-11-15T15:27:58;78.55;;;38.70;;
47299;SDS011;33036;51.320;17.234;2022-11-15T15:32:00;75.60;;;38.00;;
47299;SDS011;33036;51.320;17.234;2022-11-15T15:36:00;76.32;;;37.03;;
47299;SDS011;33036;51.320;17.234;2022-11-15T15:40:02;63.22;;;36.00;;
47299;SDS011;33036;51.320;17.234;2022-11-15T15:44:03;63.35;;;31.75;;
47299;SDS011;33036;51.320;17.234;2022-11-15T15:48:04;64.40;;;35.25;;
47299;SDS011;33036;51.320;17.234;2022-11-15T15:52:05;73.30;;;39.78;;
47299;SDS011;33036;51.320;17.234;2022-11-15T15:56:07;78.18;;;41.45;;
47299;SDS011;33036;51.320;17.234;2022-11-15T16:00:09;86.07;;;45.10;;
47299;SDS011;33036;51.320;17.234;2022-11-15T16:04:11;87.38;;;46.70;;
47299;SDS011;33036;51.320;17.234;2022-11-15T16:08:24;81.53;;;44.13;;
47299;SDS011;33036;51.320;17.234;2022-11-15T16:16:29;89.78;;;43.95;;
47299;SDS011;33036;51.320;17.234;2022-11-15T16:24:33;92.47;;;47.63;;
47299;SDS011;33036;51.320;17.234;2022-11-15T16:28:34;89.55;;;46.63;;
47299;SDS011;33036;51.320;17.234;2022-11-15T16:32:35;92.60;;;44.28;;
47299;SDS011;33036;51.320;17.234;2022-11-15T16:36:36;94.60;;;49.25;;
47299;SDS011;33036;51.320;17.234;2022-11-15T16:40:37;93.07;;;45.28;;
47299;SDS011;33036;51.320;17.234;2022-11-15T16:44:39;94.85;;;43.80;;
47299;SDS011;33036;51.320;17.234;2022-11-15T16:48:40;95.80;;;42.60;;
47299;SDS011;33036;51.320;17.234;2022-11-15T16:52:41;96.50;;;43.50;;
47299;SDS011;33036;51.320;17.234;2022-11-15T16:56:42;119.53;;;47.30;;
47299;SDS011;33036;51.320;17.234;2022-11-15T17:00:43;112.70;;;46.47;;
47299;SDS011;33036;51.320;17.234;2022-11-15T17:04:45;89.93;;;41.92;;
47299;SDS011;33036;51.320;17.234;2022-11-15T17:08:46;84.55;;;40.75;;
47299;SDS011;33036;51.320;17.234;2022-11-15T17:12:47;67.43;;;34.90;;
47299;SDS011;33036;51.320;17.234;2022-11-15T17:16:49;64.82;;;33.70;;
47299;SDS011;33036;51.320;17.234;2022-11-15T17:20:50;61.63;;;32.55;;
47299;SDS011;33036;51.320;17.234;2022-11-15T17:24:51;60.50;;;31.83;;
47299;SDS011;33036;51.320;17.234;2022-11-15T17:28:55;63.17;;;31.08;;
47299;SDS011;33036;51.320;17.234;2022-11-15T17:32:56;60.58;;;30.35;;
47299;SDS011;33036;51.320;17.234;2022-11-15T17:36:57;59.45;;;30.58;;
47299;SDS011;33036;51.320;17.234;2022-11-15T17:40:59;55.83;;;30.50;;
47299;SDS011;33036;51.320;17.234;2022-11-15T17:45:09;54.58;;;29.55;;
47299;SDS011;33036;51.320;17.234;2022-11-15T17:49:11;50.60;;;28.80;;
47299;SDS011;33036;51.320;17.234;2022-11-15T17:53:12;52.50;;;28.63;;
47299;SDS011;33036;51.320;17.234;2022-11-15T17:57:13;71.00;;;34.88;;
47299;SDS011;33036;51.320;17.234;2022-11-15T18:05:15;58.03;;;29.77;;
47299;SDS011;33036;51.320;17.234;2022-11-15T18:09:15;70.35;;;38.20;;
47299;SDS011;33036;51.320;17.234;2022-11-15T18:13:17;61.85;;;32.72;;
47299;SDS011;33036;51.320;17.234;2022-11-15T18:17:17;62.83;;;32.45;;
47299;SDS011;33036;51.320;17.234;2022-11-15T18:21:23;65.50;;;33.33;;
47299;SDS011;33036;51.320;17.234;2022-11-15T18:29:29;64.60;;;31.60;;
47299;SDS011;33036;51.320;17.234;2022-11-15T18:33:33;84.22;;;36.67;;
47299;SDS011;33036;51.320;17.234;2022-11-15T18:37:34;83.90;;;36.67;;
47299;SDS011;33036;51.320;17.234;2022-11-15T18:41:35;97.60;;;40.20;;
47299;SDS011;33036;51.320;17.234;2022-11-15T18:45:36;130.80;;;51.38;;
47299;SDS011;33036;51.320;17.234;2022-11-15T18:49:37;103.97;;;43.20;;
47299;SDS011;33036;51.320;17.234;2022-11-15T18:53:39;79.03;;;36.42;;
47299;SDS011;33036;51.320;17.234;2022-11-15T18:57:40;74.70;;;36.35;;
47299;SDS011;33036;51.320;17.234;2022-11-15T19:01:42;67.97;;;33.95;;
47299;SDS011;33036;51.320;17.234;2022-11-15T19:05:47;75.05;;;34.08;;
47299;SDS011;33036;51.320;17.234;2022-11-15T19:09:48;71.55;;;35.55;;
47299;SDS011;33036;51.320;17.234;2022-11-15T19:18:03;64.47;;;32.95;;
47299;SDS011;33036;51.320;17.234;2022-11-15T19:22:04;59.85;;;32.40;;
47299;SDS011;33036;51.320;17.234;2022-11-15T19:26:08;66.38;;;31.83;;
47299;SDS011;33036;51.320;17.234;2022-11-15T19:30:10;66.07;;;32.63;;
47299;SDS011;33036;51.320;17.234;2022-11-15T19:34:12;59.15;;;30.85;;
47299;SDS011;33036;51.320;17.234;2022-11-15T19:38:14;78.40;;;38.22;;
47299;SDS011;33036;51.320;17.234;2022-11-15T19:42:16;104.65;;;54.33;;
47299;SDS011;33036;51.320;17.234;2022-11-15T19:46:18;96.75;;;48.63;;
47299;SDS011;33036;51.320;17.234;2022-11-15T19:50:21;89.15;;;46.40;;
47299;SDS011;33036;51.320;17.234;2022-11-15T19:54:23;89.68;;;45.92;;
47299;SDS011;33036;51.320;17.234;2022-11-15T19:58:24;91.50;;;43.78;;
47299;SDS011;33036;51.320;17.234;2022-11-15T20:02:27;88.28;;;44.10;;
47299;SDS011;33036;51.320;17.234;2022-11-15T20:06:33;85.05;;;43.85;;
47299;SDS011;33036;51.320;17.234;2022-11-15T20:10:36;93.93;;;45.60;;
47299;SDS011;33036;51.320;17.234;2022-11-15T20:14:37;95.90;;;48.65;;
47299;SDS011;33036;51.320;17.234;2022-11-15T20:18:39;97.30;;;47.55;;
47299;SDS011;33036;51.320;17.234;2022-11-15T20:22:41;92.55;;;47.33;;
47299;SDS011;33036;51.320;17.234;2022-11-15T20:26:42;88.18;;;45.50;;
47299;SDS011;33036;51.320;17.234;2022-11-15T20:30:44;84.85;;;43.88;;
47299;SDS011;33036;51.320;17.234;2022-11-15T20:34:46;98.60;;;50.17;;
47299;SDS011;33036;51.320;17.234;2022-11-15T20:38:48;94.28;;;47.38;;
47299;SDS011;33036;51.320;17.234;2022-11-15T20:42:52;76.05;;;40.15;;
47299;SDS011;33036;51.320;17.234;2022-11-15T20:46:55;85.68;;;43.83;;
47299;SDS011;33036;51.320;17.234;2022-11-15T20:51:04;79.22;;;39.08;;
47299;SDS011;33036;51.320;17.234;2022-11-15T20:55:07;70.45;;;38.28;;
47299;SDS011;33036;51.320;17.234;2022-11-15T20:59:08;96.88;;;46.78;;
47299;SDS011;33036;51.320;17.234;2022-11-15T21:03:09;83.25;;;40.75;;
47299;SDS011;33036;51.320;17.234;2022-11-15T21:07:11;104.25;;;50.15;;
47299;SDS011;33036;51.320;17.234;2022-11-15T21:11:12;97.93;;;47.10;;
47299;SDS011;33036;51.320;17.234;2022-11-15T21:15:32;91.68;;;46.70;;
47299;SDS011;33036;51.320;17.234;2022-11-15T21:19:36;90.93;;;45.92;;
47299;SDS011;33036;51.320;17.234;2022-11-15T21:23:37;90.35;;;43.97;;
47299;SDS011;33036;51.320;17.234;2022-11-15T21:27:39;87.07;;;44.00;;
47299;SDS011;33036;51.320;17.234;2022-11-15T21:31:39;92.05;;;45.63;;
47299;SDS011;33036;51.320;17.234;2022-11-15T21:35:41;120.13;;;54.08;;
47299;SDS011;33036;51.320;17.234;2022-11-15T21:39:42;123.10;;;55.83;;
47299;SDS011;33036;51.320;17.234;2022-11-15T21:43:43;145.73;;;60.65;;
47299;SDS011;33036;51.320;17.234;2022-11-15T21:47:44;124.60;;;57.00;;
47299;SDS011;33036;51.320;17.234;2022-11-15T21:51:45;113.63;;;49.75;;
47299;SDS011;33036;51.320;17.234;2022-11-15T21:55:46;96.63;;;48.08;;
47299;SDS011;33036;51.320;17.234;2022-11-15T21:59:47;86.68;;;42.83;;
47299;SDS011;33036;51.320;17.234;2022-11-15T22:04:06;87.03;;;44.42;;
47299;SDS011;33036;51.320;17.234;2022-11-15T22:08:08;84.43;;;43.60;;
47299;SDS011;33036;51.320;17.234;2022-11-15T22:12:08;91.47;;;46.88;;
47299;SDS011;33036;51.320;17.234;2022-11-15T22:16:10;96.55;;;47.10;;
47299;SDS011;33036;51.320;17.234;2022-11-15T22:20:11;90.40;;;46.58;;
47299;SDS011;33036;51.320;17.234;2022-11-15T22:24:12;87.18;;;45.40;;
47299;SDS011;33036;51.320;17.234;2022-11-15T22:28:13;94.30;;;46.92;;
47299;SDS011;33036;51.320;17.234;2022-11-15T22:32:14;95.38;;;46.47;;
47299;SDS011;33036;51.320;17.234;2022-11-15T22:36:15;98.07;;;49.30;;
47299;SDS011;33036;51.320;17.234;2022-11-15T22:40:17;96.63;;;45.63;;
47299;SDS011;33036;51.320;17.234;2022-11-15T22:44:17;81.32;;;42.42;;
47299;SDS011;33036;51.320;17.234;2022-11-15T22:48:19;89.53;;;43.47;;
47299;SDS011;33036;51.320;17.234;2022-11-15T22:52:31;100.60;;;44.92;;
47299;SDS011;33036;51.320;17.234;2022-11-15T22:56:32;111.82;;;48.45;;
47299;SDS011;33036;51.320;17.234;2022-11-15T23:00:33;108.15;;;48.58;;
47299;SDS011;33036;51.320;17.234;2022-11-15T23:04:34;108.15;;;48.28;;
47299;SDS011;33036;51.320;17.234;2022-11-15T23:08:35;117.80;;;48.92;;
47299;SDS011;33036;51.320;17.234;2022-11-15T23:12:36;117.85;;;50.55;;
47299;SDS011;33036;51.320;17.234;2022-11-15T23:16:56;124.03;;;52.55;;
47299;SDS011;33036;51.320;17.234;2022-11-15T23:20:57;116.15;;;51.83;;
47299;SDS011;33036;51.320;17.234;2022-11-15T23:24:58;113.47;;;51.20;;
47299;SDS011;33036;51.320;17.234;2022-11-15T23:28:59;90.40;;;44.13;;
47299;SDS011;33036;51.320;17.234;2022-11-15T23:33:00;97.53;;;43.40;;
47299;SDS011;33036;51.320;17.234;2022-11-15T23:37:20;99.25;;;44.25;;
47299;SDS011;33036;51.320;17.234;2022-11-15T23:41:21;94.40;;;44.92;;
47299;SDS011;33036;51.320;17.234;2022-11-15T23:45:23;84.18;;;40.35;;
47299;SDS011;33036;51.320;17.234;2022-11-15T23:49:24;74.82;;;37.47;;
47299;SDS011;33036;51.320;17.234;2022-11-15T23:53:25;67.18;;;33.03;;
47299;SDS011;33036;51.320;17.234;2022-11-15T23:57:26;70.60;;;32.70;;
